Impacts METAR Board
IDs:

KISP - Islip/Macarthur Arpt, NY, US

Updated at: 2200 UTC 24 Jun 2018
Potential Impact None Slight Moderate High
Time 24/10Z 24/11Z 24/12Z 24/13Z 24/14Z 24/15Z 24/16Z 24/17Z 24/18Z 24/19Z 24/20Z 24/21Z 24/22Z
Temp64 65 65 67 68 70 75 73 74 74 75 77 74
Dewpt64 65 65 65 66 67 68 68 69 69 69 69 68
Altim29.82 29.84 29.85 29.85 29.85 29.85 29.84 29.84 29.83 29.81 29.80 29.80 29.79
VIS5 7 5 10 7 10 10 10 10 10 10 10 10
CIG4 3 3 6 5 5 12 10 10 7 7 150 90
CoverOVCOVCOVCOVCOVCOVCBKNOVCOVCOVCBKNBKNBKN
FltCatLIFRLIFRLIFRIFRIFRIFRMVFRMVFRMVFRIFRIFRVFRVFR
WXBR--BR--------------------
WDir170190200230210210180190190170190190210
WSpd3 6 6 6 8 7 7 8 10 10 8 7 7
WGst-- -- -- -- -- -- -- -- -- -- -- -- --
Raw hourly METARs
KISP 240956Z 17003KT 5SM BR OVC004 18/18 A2982 RMK AO2 SLP099 T01780178
KISP 241056Z 19006KT 7SM OVC003 18/18 A2984 RMK AO2 SLP103 T01830183
KISP 241156Z 20006KT 5SM BR OVC003 18/18 A2985 RMK AO2 SLP106 T01830183 10183 20172 51012
KISP 241256Z 23006KT 10SM OVC006 19/18 A2985 RMK AO2 SLP108 T01940183
KISP 241356Z 21008KT 7SM OVC005 20/19 A2985 RMK AO2 SLP108 T02000189
KISP 241456Z 21007KT 10SM OVC005 21/19 A2985 RMK AO2 SLP107 T02110194 50001
KISP 241556Z 18007KT 10SM BKN012 BKN150 BKN250 24/20 A2984 RMK AO2 SLP104 T02390200
KISP 241656Z 19008KT 10SM OVC010 23/20 A2984 RMK AO2 SLP103 T02280200
KISP 241756Z 19010KT 10SM BKN010 OVC150 23/21 A2983 RMK AO2 SLP100 T02330206 10239 20183 56007
KISP 241856Z 17010KT 10SM BKN007 OVC150 23/21 A2981 RMK AO2 SLP095 T02330206
KISP 241956Z 19008KT 10SM BKN007 BKN150 BKN250 24/21 A2980 RMK AO2 SLP091 BKN007 V SCT T02390206
KISP 242056Z 19007KT 10SM FEW007 SCT040 BKN150 BKN250 25/21 A2980 RMK AO2 SLP090 T02500206 56010
KISP 242156Z 21007KT 10SM FEW007 SCT040 BKN090 BKN250 23/20 A2979 RMK AO2 SLP087 CB DSNT N T02330200



Page loaded:  22:26 UTC  |   03:26 PM Pacific  |   04:26 PM Mountain  |   05:26 PM Central  |   06:26 PM Eastern

 

ADVISORIES

FORECASTS

FORECASTS

OBSERVATIONS

USER TOOLS

ABOUT US